Station Historical Data
Daily Summary for August 7, 2012 Units:  English    Metric   Both
« Previous Day
Next Day »
Daily Weekly Monthly Yearly Custom
  High: Low: Average:
Temperature: 89.9 °F 71.3 °F 80 °F
Dew Point: 78.4 °F 68.9 °F 73.2 °F
Humidity: 92% 58% 81%
Wind Speed: 6.0mph 0.0mph 1.2mph
Wind Gust: 8.0mph - -
Wind- - SSE
Pressure: 29.96 in 29.86 in -
Precipitation: 0.00 in    
Historical Graphs
 
 
Tabular Data for August 7, 2012
Time Temperature Dew Point Pressure Wind Wind Speed Wind Gust Humidity Rainfall Rate (Hourly) Conditions
00:00 74.5 °F 72.0 °F 29.94 in Calm     92% 0.00 in
00:01 74.4 °F 71.9 °F 29.94 in Calm     92% 0.00 in
00:06 74.2 °F 71.7 °F 29.94 in Calm     92% 0.00 in
00:11 74.3 °F 71.8 °F 29.94 in Calm   1.0 mph 92% 0.00 in
00:16 74.4 °F 71.9 °F 29.94 in NE 1.0 mph 1.0 mph 92% 0.00 in
00:21 74.6 °F 72.1 °F 29.94 in Calm   1.0 mph 92% 0.00 in
00:27 74.5 °F 72.0 °F 29.94 in Calm     92% 0.00 in
00:32 74.4 °F 71.9 °F 29.94 in Calm     92% 0.00 in
00:37 74.2 °F 71.7 °F 29.94 in Calm     92% 0.00 in
00:42 74.3 °F 71.8 °F 29.94 in Calm   1.0 mph 92% 0.00 in
00:47 74.3 °F 71.8 °F 29.95 in Calm     92% 0.00 in
00:52 73.9 °F 71.4 °F 29.94 in Calm     92% 0.00 in
00:57 73.8 °F 71.3 °F 29.94 in Calm     92% 0.00 in
01:02 73.8 °F 71.3 °F 29.94 in NE 1.0 mph 1.0 mph 92% 0.00 in
01:07 73.8 °F 71.3 °F 29.94 in Calm   1.0 mph 92% 0.00 in
01:12 73.8 °F 71.3 °F 29.94 in Calm     92% 0.00 in
01:17 73.6 °F 71.1 °F 29.94 in Calm     92% 0.00 in
01:22 73.6 °F 71.1 °F 29.94 in Calm     92% 0.00 in
01:27 73.8 °F 71.3 °F 29.94 in NE 1.0 mph 1.0 mph 92% 0.00 in
01:32 73.9 °F 71.4 °F 29.94 in Calm     92% 0.00 in
01:37 73.6 °F 71.1 °F 29.94 in Calm     92% 0.00 in
01:42 73.4 °F 70.9 °F 29.94 in Calm     92% 0.00 in
01:47 73.1 °F 70.6 °F 29.93 in Calm     92% 0.00 in
01:52 72.8 °F 70.3 °F 29.93 in Calm     92% 0.00 in
01:57 72.9 °F 70.4 °F 29.93 in Calm     92% 0.00 in
02:02 72.8 °F 70.3 °F 29.93 in Calm     92% 0.00 in
02:07 73.1 °F 70.3 °F 29.93 in Calm     91% 0.00 in
02:12 73.3 °F 70.5 °F 29.93 in NE 1.0 mph 1.0 mph 91% 0.00 in
02:17 73.1 °F 70.6 °F 29.93 in Calm   1.0 mph 92% 0.00 in
02:22 73.1 °F 70.6 °F 29.93 in NE 1.0 mph 2.0 mph 92% 0.00 in
02:27 73.2 °F 70.7 °F 29.93 in Calm   1.0 mph 92% 0.00 in
02:32 73.2 °F 70.7 °F 29.93 in Calm     92% 0.00 in
02:37 73.1 °F 70.6 °F 29.93 in Calm     92% 0.00 in
02:42 73.1 °F 70.6 °F 29.92 in NNE 1.0 mph 1.0 mph 92% 0.00 in
02:48 73.2 °F 70.7 °F 29.92 in Calm     92% 0.00 in
02:53 73.2 °F 70.7 °F 29.92 in Calm     92% 0.00 in
02:58 73.2 °F 70.7 °F 29.92 in Calm   1.0 mph 92% 0.00 in
03:03 73.2 °F 70.7 °F 29.92 in Calm     92% 0.00 in
03:08 73.2 °F 70.7 °F 29.92 in Calm     92% 0.00 in
03:12 73.2 °F 70.7 °F 29.91 in Calm     92% 0.00 in
03:18 73.0 °F 70.5 °F 29.91 in Calm     92% 0.00 in
03:23 72.8 °F 70.3 °F 29.91 in NNE 1.0 mph 1.0 mph 92% 0.00 in
03:28 72.5 °F 70.1 °F 29.91 in Calm   1.0 mph 92% 0.00 in
03:33 72.4 °F 69.9 °F 29.91 in NNE 1.0 mph 1.0 mph 92% 0.00 in
03:38 72.2 °F 69.8 °F 29.91 in NNE 1.0 mph 1.0 mph 92% 0.00 in
03:43 72.3 °F 69.8 °F 29.91 in NNE 1.0 mph 1.0 mph 92% 0.00 in
03:48 72.1 °F 69.7 °F 29.91 in NNE 1.0 mph 1.0 mph 92% 0.00 in
03:53 72.2 °F 69.8 °F 29.91 in NNE 1.0 mph 1.0 mph 92% 0.00 in
03:58 72.3 °F 69.8 °F 29.91 in Calm   1.0 mph 92% 0.00 in
04:03 72.2 °F 69.8 °F 29.91 in Calm   1.0 mph 92% 0.00 in
04:08 72.0 °F 69.6 °F 29.91 in Calm     92% 0.00 in
04:13 72.0 °F 69.6 °F 29.91 in Calm     92% 0.00 in
04:18 71.8 °F 69.3 °F 29.91 in Calm     92% 0.00 in
04:23 71.6 °F 69.2 °F 29.91 in Calm     92% 0.00 in
04:28 71.4 °F 69.0 °F 29.91 in Calm     92% 0.00 in
04:33 71.6 °F 69.2 °F 29.91 in Calm     92% 0.00 in
04:38 71.6 °F 69.2 °F 29.91 in Calm     92% 0.00 in
04:43 71.4 °F 69.0 °F 29.91 in Calm     92% 0.00 in
04:48 71.7 °F 69.3 °F 29.91 in Calm     92% 0.00 in
04:53 71.7 °F 69.3 °F 29.91 in Calm     92% 0.00 in
04:58 71.7 °F 69.3 °F 29.91 in Calm     92% 0.00 in
05:03 71.8 °F 69.3 °F 29.91 in Calm     92% 0.00 in
05:08 71.8 °F 69.3 °F 29.91 in Calm   1.0 mph 92% 0.00 in
05:13 71.8 °F 69.3 °F 29.91 in Calm     92% 0.00 in
05:18 72.0 °F 69.6 °F 29.91 in Calm     92% 0.00 in
05:23 72.0 °F 69.6 °F 29.91 in Calm     92% 0.00 in
05:28 72.0 °F 69.6 °F 29.91 in NNE 1.0 mph 1.0 mph 92% 0.00 in
05:33 72.1 °F 69.7 °F 29.91 in NNE 1.0 mph 1.0 mph 92% 0.00 in
05:38 71.8 °F 69.3 °F 29.91 in NNE 1.0 mph 2.0 mph 92% 0.00 in
05:44 71.8 °F 69.3 °F 29.91 in Calm   1.0 mph 92% 0.00 in
05:49 72.0 °F 69.6 °F 29.91 in Calm     92% 0.00 in
05:54 72.0 °F 69.6 °F 29.91 in Calm   1.0 mph 92% 0.00 in
05:59 72.3 °F 69.8 °F 29.91 in Calm     92% 0.00 in
06:04 72.2 °F 69.8 °F 29.92 in Calm     92% 0.00 in
06:09 72.2 °F 69.8 °F 29.91 in Calm     92% 0.00 in
06:14 72.5 °F 70.1 °F 29.91 in Calm     92% 0.00 in
06:19 72.4 °F 69.9 °F 29.92 in Calm     92% 0.00 in
06:24 72.0 °F 69.6 °F 29.92 in Calm   1.0 mph 92% 0.00 in
06:29 71.7 °F 69.3 °F 29.92 in Calm     92% 0.00 in
06:34 71.7 °F 69.3 °F 29.92 in Calm     92% 0.00 in
06:39 71.9 °F 69.4 °F 29.92 in NE 1.0 mph 1.0 mph 92% 0.00 in
06:44 72.1 °F 69.7 °F 29.92 in NE 2.0 mph 2.0 mph 92% 0.00 in
06:49 72.2 °F 69.8 °F 29.92 in Calm     92% 0.00 in
06:54 72.1 °F 69.7 °F 29.92 in Calm     92% 0.00 in
06:59 71.9 °F 69.4 °F 29.93 in Calm     92% 0.00 in
07:04 71.8 °F 69.3 °F 29.93 in Calm     92% 0.00 in
07:09 72.1 °F 69.7 °F 29.93 in Calm     92% 0.00 in
07:14 71.8 °F 69.3 °F 29.93 in Calm     92% 0.00 in
07:19 71.7 °F 69.3 °F 29.93 in NNE 1.0 mph 1.0 mph 92% 0.00 in
07:24 71.6 °F 69.2 °F 29.93 in Calm     92% 0.00 in
07:29 71.6 °F 69.2 °F 29.93 in Calm   1.0 mph 92% 0.00 in
07:34 71.3 °F 68.9 °F 29.93 in Calm     92% 0.00 in
07:39 71.3 °F 68.9 °F 29.93 in NNE 1.0 mph 1.0 mph 92% 0.00 in
07:44 71.7 °F 69.3 °F 29.93 in Calm   1.0 mph 92% 0.00 in
07:49 71.8 °F 69.3 °F 29.94 in Calm     92% 0.00 in
07:54 72.1 °F 69.7 °F 29.94 in NNE 1.0 mph 1.0 mph 92% 0.00 in
07:59 72.7 °F 69.9 °F 29.94 in Calm   1.0 mph 91% 0.00 in
08:04 73.2 °F 70.4 °F 29.94 in Calm     91% 0.00 in
08:09 73.5 °F 70.7 °F 29.94 in ENE 1.0 mph 1.0 mph 91% 0.00 in
08:14 73.5 °F 71.0 °F 29.94 in NNW 1.0 mph 2.0 mph 92% 0.00 in
08:19 73.7 °F 70.9 °F 29.94 in North 1.0 mph 2.0 mph 91% 0.00 in
08:24 74.1 °F 71.3 °F 29.95 in North 1.0 mph 3.0 mph 91% 0.00 in
08:29 74.6 °F 71.8 °F 29.95 in NE 2.0 mph 2.0 mph 91% 0.00 in
08:34 74.7 °F 71.9 °F 29.95 in NE 1.0 mph 3.0 mph 91% 0.00 in
08:39 75.1 °F 72.3 °F 29.95 in NE 1.0 mph 2.0 mph 91% 0.00 in
08:44 75.3 °F 72.5 °F 29.95 in East 1.0 mph 3.0 mph 91% 0.00 in
08:49 75.7 °F 72.9 °F 29.95 in East 2.0 mph 2.0 mph 91% 0.00 in
08:54 76.0 °F 73.2 °F 29.95 in ESE 3.0 mph 3.0 mph 91% 0.00 in
08:59 76.2 °F 73.4 °F 29.95 in ESE 4.0 mph 5.0 mph 91% 0.00 in
09:04 76.4 °F 73.6 °F 29.95 in ESE 2.0 mph 4.0 mph 91% 0.00 in
09:10 77.1 °F 74.3 °F 29.95 in SE 1.0 mph 2.0 mph 91% 0.00 in
09:14 77.6 °F 74.8 °F 29.95 in SE 2.0 mph 2.0 mph 91% 0.00 in
09:20 77.9 °F 75.4 °F 29.95 in ESE 1.0 mph 3.0 mph 92% 0.00 in
09:25 78.3 °F 75.8 °F 29.95 in ESE 2.0 mph 3.0 mph 92% 0.00 in
09:30 78.7 °F 75.9 °F 29.95 in Calm   1.0 mph 91% 0.00 in
09:35 79.5 °F 76.3 °F 29.95 in ESE 1.0 mph 2.0 mph 90% 0.00 in
09:40 80.5 °F 77.3 °F 29.95 in SE 2.0 mph 2.0 mph 90% 0.00 in
09:45 80.8 °F 76.9 °F 29.95 in ENE 1.0 mph 2.0 mph 88% 0.00 in
09:50 81.0 °F 77.1 °F 29.95 in Calm   2.0 mph 88% 0.00 in
09:55 81.3 °F 77.1 °F 29.95 in WSW 1.0 mph 1.0 mph 87% 0.00 in
10:00 81.4 °F 77.5 °F 29.95 in Calm   1.0 mph 88% 0.00 in
10:05 81.2 °F 77.0 °F 29.95 in Calm   2.0 mph 87% 0.00 in
10:10 81.6 °F 77.4 °F 29.95 in Calm     87% 0.00 in
10:15 83.0 °F 77.7 °F 29.95 in Calm   1.0 mph 84% 0.00 in
10:20 83.2 °F 78.2 °F 29.95 in NNE 1.0 mph 3.0 mph 85% 0.00 in
10:25 83.4 °F 77.7 °F 29.95 in NNW 2.0 mph 2.0 mph 83% 0.00 in
10:30 82.3 °F 77.3 °F 29.95 in Calm   3.0 mph 85% 0.00 in
10:35 82.5 °F 77.2 °F 29.95 in WNW 2.0 mph 2.0 mph 84% 0.00 in
10:40 82.2 °F 77.6 °F 29.95 in NW 2.0 mph 5.0 mph 86% 0.00 in
10:45 81.9 °F 76.9 °F 29.95 in NW 2.0 mph 3.0 mph 85% 0.00 in
10:50 82.1 °F 77.2 °F 29.95 in WNW 1.0 mph 4.0 mph 85% 0.00 in
10:55 82.3 °F 77.0 °F 29.95 in WNW 2.0 mph 4.0 mph 84% 0.00 in
11:00 82.4 °F 76.7 °F 29.96 in West 2.0 mph 4.0 mph 83% 0.00 in
11:05 82.6 °F 76.9 °F 29.96 in Calm   3.0 mph 83% 0.00 in
11:10 83.3 °F 77.2 °F 29.95 in Calm   2.0 mph 82% 0.00 in
11:15 84.0 °F 77.9 °F 29.96 in NW 4.0 mph 4.0 mph 82% 0.00 in
11:20 83.6 °F 76.8 °F 29.95 in NW 3.0 mph 5.0 mph 80% 0.00 in
11:25 82.7 °F 76.7 °F 29.96 in WNW 3.0 mph 5.0 mph 82% 0.00 in
11:30 82.9 °F 76.8 °F 29.95 in West 3.0 mph 4.0 mph 82% 0.00 in
11:35 83.4 °F 77.3 °F 29.95 in NW 4.0 mph 6.0 mph 82% 0.00 in
11:41 83.2 °F 77.5 °F 29.95 in NNE 3.0 mph 5.0 mph 83% 0.00 in
11:46 83.6 °F 76.4 °F 29.95 in NW 2.0 mph 4.0 mph 79% 0.00 in
11:51 84.1 °F 77.3 °F 29.96 in NW 4.0 mph 5.0 mph 80% 0.00 in
11:56 84.4 °F 77.6 °F 29.95 in WNW 1.0 mph 3.0 mph 80% 0.00 in
12:02 84.5 °F 76.1 °F 29.95 in North 2.0 mph 6.0 mph 76% 0.00 in
12:07 84.2 °F 76.6 °F 29.95 in NW 2.0 mph 3.0 mph 78% 0.00 in
12:12 84.5 °F 76.9 °F 29.95 in NW 2.0 mph 6.0 mph 78% 0.00 in
12:17 84.9 °F 76.5 °F 29.95 in NNW 3.0 mph 3.0 mph 76% 0.00 in
12:22 85.4 °F 76.2 °F 29.95 in NE 1.0 mph 4.0 mph 74% 0.00 in
12:27 85.8 °F 77.0 °F 29.95 in North 5.0 mph 5.0 mph 75% 0.00 in
12:32 85.9 °F 76.2 °F 29.95 in ENE 1.0 mph 7.0 mph 73% 0.00 in
12:37 86.5 °F 78.0 °F 29.95 in NE 4.0 mph 4.0 mph 76% 0.00 in
12:42 86.5 °F 76.0 °F 29.94 in South 1.0 mph 3.0 mph 71% 0.00 in
12:47 87.7 °F 78.4 °F 29.94 in NE 2.0 mph 2.0 mph 74% 0.00 in
12:52 87.3 °F 76.3 °F 29.94 in NW 2.0 mph 4.0 mph 70% 0.00 in
12:57 86.5 °F 76.4 °F 29.94 in NW 1.0 mph 2.0 mph 72% 0.00 in
13:02 86.9 °F 77.2 °F 29.93 in Calm   2.0 mph 73% 0.00 in
13:07 87.3 °F 75.9 °F 29.93 in NW 3.0 mph 4.0 mph 69% 0.00 in
13:12 87.0 °F 75.6 °F 29.93 in NE 2.0 mph 3.0 mph 69% 0.00 in
13:17 87.4 °F 76.4 °F 29.93 in NNW 1.0 mph 3.0 mph 70% 0.00 in
13:22 88.3 °F 76.4 °F 29.93 in NE 4.0 mph 4.0 mph 68% 0.00 in
13:27 87.9 °F 75.6 °F 29.93 in NE 3.0 mph 3.0 mph 67% 0.00 in
13:32 87.0 °F 74.7 °F 29.93 in NE 2.0 mph 4.0 mph 67% 0.00 in
13:37 87.6 °F 75.7 °F 29.92 in SSW 1.0 mph 3.0 mph 68% 0.00 in
13:43 89.0 °F 76.6 °F 29.92 in SSW 1.0 mph 1.0 mph 67% 0.00 in
13:48 89.9 °F 76.6 °F 29.92 in NE 3.0 mph 5.0 mph 65% 0.00 in
13:53 89.0 °F 76.2 °F 29.92 in North 1.0 mph 5.0 mph 66% 0.00 in
13:58 88.7 °F 75.0 °F 29.92 in WNW 1.0 mph 3.0 mph 64% 0.00 in
14:03 88.2 °F 75.4 °F 29.91 in Calm   5.0 mph 66% 0.00 in
14:08 88.1 °F 76.2 °F 29.91 in NE 2.0 mph 4.0 mph 68% 0.00 in
14:13 87.7 °F 75.8 °F 29.91 in East 4.0 mph 6.0 mph 68% 0.00 in
14:18 87.9 °F 74.2 °F 29.91 in East 4.0 mph 6.0 mph 64% 0.00 in
14:23 88.3 °F 76.0 °F 29.91 in ENE 3.0 mph 3.0 mph 67% 0.00 in
14:28 88.3 °F 74.6 °F 29.91 in Calm   3.0 mph 64% 0.00 in
14:33 88.3 °F 75.1 °F 29.91 in North 1.0 mph 2.0 mph 65% 0.00 in
14:38 87.9 °F 74.7 °F 29.91 in NW 2.0 mph 2.0 mph 65% 0.00 in
14:43 87.6 °F 75.7 °F 29.91 in NNW 4.0 mph 5.0 mph 68% 0.00 in
14:48 86.8 °F 75.8 °F 29.90 in North 2.0 mph 5.0 mph 70% 0.00 in
14:53 87.0 °F 76.0 °F 29.90 in NE 4.0 mph 5.0 mph 70% 0.00 in
14:58 88.0 °F 77.4 °F 29.90 in ENE 1.0 mph 2.0 mph 71% 0.00 in
15:03 88.9 °F 77.0 °F 29.90 in Calm   3.0 mph 68% 0.00 in
15:08 89.5 °F 74.3 °F 29.90 in ENE 4.0 mph 6.0 mph 61% 0.00 in
15:13 89.1 °F 75.8 °F 29.90 in North 2.0 mph 3.0 mph 65% 0.00 in
15:18 88.3 °F 74.6 °F 29.90 in NW 4.0 mph 6.0 mph 64% 0.00 in
15:23 87.3 °F 75.4 °F 29.90 in NNW 4.0 mph 6.0 mph 68% 0.00 in
15:28 87.2 °F 74.5 °F 29.89 in NNW 4.0 mph 5.0 mph 66% 0.00 in
15:33 87.9 °F 74.7 °F 29.89 in Calm   1.0 mph 65% 0.00 in
15:38 88.8 °F 74.1 °F 29.89 in Calm   3.0 mph 62% 0.00 in
15:43 89.5 °F 75.2 °F 29.89 in NW 4.0 mph 4.0 mph 63% 0.00 in
15:48 89.2 °F 75.0 °F 29.89 in NNW 6.0 mph 7.0 mph 63% 0.00 in
15:53 88.2 °F 73.6 °F 29.89 in NE 1.0 mph 5.0 mph 62% 0.00 in
15:58 88.0 °F 74.3 °F 29.88 in NE 1.0 mph 4.0 mph 64% 0.00 in
16:03 88.4 °F 73.7 °F 29.88 in NNE 3.0 mph 4.0 mph 62% 0.00 in
16:08 88.8 °F 76.4 °F 29.88 in NE 3.0 mph 5.0 mph 67% 0.00 in
16:13 88.9 °F 73.7 °F 29.88 in NNW 5.0 mph 8.0 mph 61% 0.00 in
16:18 88.7 °F 74.5 °F 29.88 in NW 6.0 mph 7.0 mph 63% 0.00 in
16:23 88.1 °F 75.3 °F 29.88 in NNW 3.0 mph 8.0 mph 66% 0.00 in
16:29 86.9 °F 74.6 °F 29.88 in NNW 3.0 mph 5.0 mph 67% 0.00 in
16:34 86.8 °F 75.4 °F 29.88 in NNW 4.0 mph 7.0 mph 69% 0.00 in
16:39 87.6 °F 77.0 °F 29.88 in NNW 4.0 mph 6.0 mph 71% 0.00 in
16:44 87.3 °F 74.6 °F 29.87 in NNW 4.0 mph 5.0 mph 66% 0.00 in
16:49 87.0 °F 73.8 °F 29.87 in WNW 2.0 mph 3.0 mph 65% 0.00 in
16:54 87.9 °F 72.8 °F 29.87 in NE 5.0 mph 5.0 mph 61% 0.00 in
16:59 88.6 °F 71.9 °F 29.87 in NNW 4.0 mph 6.0 mph 58% 0.00 in
17:04 89.3 °F 74.6 °F 29.87 in North 4.0 mph 5.0 mph 62% 0.00 in
17:09 89.4 °F 74.7 °F 29.87 in NE 5.0 mph 7.0 mph 62% 0.00 in
17:14 88.5 °F 73.8 °F 29.87 in NNW 4.0 mph 8.0 mph 62% 0.00 in
17:19 87.8 °F 74.6 °F 29.87 in NE 2.0 mph 4.0 mph 65% 0.00 in
17:24 87.7 °F 74.0 °F 29.87 in NE 4.0 mph 7.0 mph 64% 0.00 in
17:29 88.5 °F 75.2 °F 29.87 in NE 4.0 mph 4.0 mph 65% 0.00 in
17:34 88.6 °F 73.9 °F 29.87 in NE 2.0 mph 5.0 mph 62% 0.00 in
17:39 88.8 °F 73.6 °F 29.87 in NNW 2.0 mph 5.0 mph 61% 0.00 in
17:44 88.9 °F 74.2 °F 29.87 in NNW 3.0 mph 7.0 mph 62% 0.00 in
17:49 89.2 °F 74.5 °F 29.87 in North 2.0 mph 4.0 mph 62% 0.00 in
17:54 89.0 °F 75.2 °F 29.86 in NNW 6.0 mph 7.0 mph 64% 0.00 in
17:59 88.8 °F 74.6 °F 29.86 in NNE 2.0 mph 7.0 mph 63% 0.00 in
18:04 88.7 °F 74.0 °F 29.87 in NE 4.0 mph 6.0 mph 62% 0.00 in
18:09 88.4 °F 72.8 °F 29.87 in NE 3.0 mph 5.0 mph 60% 0.00 in
18:14 88.2 °F 73.1 °F 29.87 in NNE 2.0 mph 6.0 mph 61% 0.00 in
18:20 88.5 °F 73.3 °F 29.87 in NNE 4.0 mph 4.0 mph 61% 0.00 in
18:25 88.6 °F 73.9 °F 29.87 in Calm   4.0 mph 62% 0.00 in
18:30 88.7 °F 72.5 °F 29.87 in NNE 2.0 mph 6.0 mph 59% 0.00 in
18:35 88.6 °F 73.4 °F 29.87 in NNE 4.0 mph 6.0 mph 61% 0.00 in
18:40 88.7 °F 73.0 °F 29.87 in East 3.0 mph 4.0 mph 60% 0.00 in
18:45 88.6 °F 73.4 °F 29.88 in ENE 4.0 mph 5.0 mph 61% 0.00 in
18:50 88.4 °F 73.7 °F 29.87 in NE 4.0 mph 7.0 mph 62% 0.00 in
18:55 88.4 °F 74.7 °F 29.87 in NNE 2.0 mph 3.0 mph 64% 0.00 in
19:00 88.2 °F 73.6 °F 29.87 in NE 4.0 mph 5.0 mph 62% 0.00 in
19:05 88.0 °F 73.4 °F 29.87 in NE 3.0 mph 5.0 mph 62% 0.00 in
19:10 87.7 °F 73.1 °F 29.87 in ENE 3.0 mph 6.0 mph 62% 0.00 in
19:15 87.6 °F 73.0 °F 29.87 in NE 3.0 mph 4.0 mph 62% 0.00 in
19:20 87.6 °F 73.9 °F 29.87 in East 1.0 mph 4.0 mph 64% 0.00 in
19:25 87.6 °F 73.9 °F 29.87 in NE 2.0 mph 4.0 mph 64% 0.00 in
19:30 87.4 °F 74.2 °F 29.87 in NNE 1.0 mph 4.0 mph 65% 0.00 in
19:35 87.3 °F 74.1 °F 29.87 in NE 2.0 mph 2.0 mph 65% 0.00 in
19:40 87.3 °F 74.6 °F 29.87 in NNE 2.0 mph 2.0 mph 66% 0.00 in
19:45 87.2 °F 74.5 °F 29.87 in NNE 2.0 mph 2.0 mph 66% 0.00 in
19:50 87.1 °F 74.4 °F 29.87 in NE 1.0 mph 2.0 mph 66% 0.00 in
19:55 86.8 °F 74.1 °F 29.87 in NE 2.0 mph 2.0 mph 66% 0.00 in
20:00 86.7 °F 74.4 °F 29.87 in East 1.0 mph 2.0 mph 67% 0.00 in
20:05 86.6 °F 74.3 °F 29.88 in East 2.0 mph 2.0 mph 67% 0.00 in
20:10 86.4 °F 74.6 °F 29.88 in ENE 1.0 mph 2.0 mph 68% 0.00 in
20:15 86.1 °F 74.3 °F 29.87 in Calm   2.0 mph 68% 0.00 in
20:20 85.8 °F 74.5 °F 29.88 in NE 1.0 mph 2.0 mph 69% 0.00 in
20:25 85.4 °F 74.5 °F 29.88 in Calm   1.0 mph 70% 0.00 in
20:30 84.9 °F 74.4 °F 29.87 in Calm     71% 0.00 in
20:35 84.4 °F 74.4 °F 29.87 in Calm     72% 0.00 in
20:40 83.7 °F 74.1 °F 29.87 in Calm     73% 0.00 in
20:45 83.3 °F 74.2 °F 29.87 in Calm     74% 0.00 in
20:50 82.9 °F 74.2 °F 29.87 in Calm     75% 0.00 in
20:55 82.5 °F 74.2 °F 29.88 in Calm     76% 0.00 in
21:00 82.1 °F 74.2 °F 29.88 in East 1.0 mph 2.0 mph 77% 0.00 in
21:05 81.9 °F 74.4 °F 29.88 in Calm   1.0 mph 78% 0.00 in
21:10 81.4 °F 74.3 °F 29.88 in ESE 1.0 mph 2.0 mph 79% 0.00 in
21:16 81.0 °F 74.2 °F 29.88 in Calm   1.0 mph 80% 0.00 in
21:21 80.7 °F 74.3 °F 29.88 in Calm   1.0 mph 81% 0.00 in
21:26 80.5 °F 74.5 °F 29.88 in Calm   1.0 mph 82% 0.00 in
21:31 80.2 °F 74.6 °F 29.88 in Calm     83% 0.00 in
21:36 79.9 °F 74.6 °F 29.88 in Calm     84% 0.00 in
21:41 79.8 °F 74.5 °F 29.88 in Calm   1.0 mph 84% 0.00 in
21:46 79.7 °F 74.4 °F 29.89 in Calm     84% 0.00 in
21:51 79.4 °F 74.5 °F 29.89 in Calm   1.0 mph 85% 0.00 in
21:56 79.1 °F 74.2 °F 29.90 in Calm     85% 0.00 in
22:01 78.9 °F 74.4 °F 29.90 in Calm   1.0 mph 86% 0.00 in
22:06 78.8 °F 74.6 °F 29.90 in East 1.0 mph 1.0 mph 87% 0.00 in
22:11 78.6 °F 74.4 °F 29.91 in East 1.0 mph 1.0 mph 87% 0.00 in
22:16 78.4 °F 74.2 °F 29.91 in Calm     87% 0.00 in
22:21 77.6 °F 73.8 °F 29.91 in Calm     88% 0.00 in
22:26 77.1 °F 73.6 °F 29.91 in Calm     89% 0.00 in
22:32 76.8 °F 73.7 °F 29.91 in Calm     90% 0.00 in
22:37 76.6 °F 73.4 °F 29.91 in Calm     90% 0.00 in
22:42 76.5 °F 73.3 °F 29.91 in Calm     90% 0.00 in
22:47 76.4 °F 73.6 °F 29.91 in Calm     91% 0.00 in
22:52 76.2 °F 73.4 °F 29.91 in Calm     91% 0.00 in
22:57 76.2 °F 73.4 °F 29.91 in Calm     91% 0.00 in
23:02 76.1 °F 73.3 °F 29.92 in Calm     91% 0.00 in
23:07 75.8 °F 73.0 °F 29.91 in Calm     91% 0.00 in
23:12 75.6 °F 73.1 °F 29.92 in Calm     92% 0.00 in
23:17 75.5 °F 73.0 °F 29.91 in Calm     92% 0.00 in
23:22 75.4 °F 72.9 °F 29.91 in Calm     92% 0.00 in
23:27 75.4 °F 72.9 °F 29.92 in Calm     92% 0.00 in
23:32 75.4 °F 72.9 °F 29.92 in Calm     92% 0.00 in
23:37 75.2 °F 72.7 °F 29.92 in Calm     92% 0.00 in
23:42 75.1 °F 72.6 °F 29.92 in Calm     92% 0.00 in
23:47 75.2 °F 72.7 °F 29.92 in Calm     92% 0.00 in
23:52 75.2 °F 72.7 °F 29.92 in Calm     92% 0.00 in
23:57 75.1 °F 72.6 °F 29.92 in Calm     92% 0.00 in
Compliments of Weather Underground